sensor_id;sensor_type;location;lat;lon;timestamp;pressure;altitude;pressure_sealevel;temperature;humidity
43621;BME280;29213;50.770;7.298;2022-10-04T00:00:57;101701.25;;;7.75;61.89
43621;BME280;29213;50.770;7.298;2022-10-04T00:03:11;101701.75;;;7.80;61.83
43621;BME280;29213;50.770;7.298;2022-10-04T00:05:41;101709.72;;;7.80;61.76
43621;BME280;29213;50.770;7.298;2022-10-04T00:08:47;101719.50;;;7.80;62.19
43621;BME280;29213;50.770;7.298;2022-10-04T00:11:21;101687.38;;;7.60;62.28
43621;BME280;29213;50.770;7.298;2022-10-04T00:14:26;101694.38;;;7.72;62.50
43621;BME280;29213;50.770;7.298;2022-10-04T00:16:44;101655.19;;;7.53;62.40
43621;BME280;29213;50.770;7.298;2022-10-04T00:24:35;101646.63;;;7.49;62.37
43621;BME280;29213;50.770;7.298;2022-10-04T00:27:24;101697.53;;;7.77;62.70
43621;BME280;29213;50.770;7.298;2022-10-04T00:38:01;101697.00;;;7.61;63.62
43621;BME280;29213;50.770;7.298;2022-10-04T00:40:49;101692.56;;;7.61;63.13
43621;BME280;29213;50.770;7.298;2022-10-04T00:46:01;101687.00;;;7.65;63.16
43621;BME280;29213;50.770;7.298;2022-10-04T00:51:34;101679.31;;;7.61;62.81
43621;BME280;29213;50.770;7.298;2022-10-04T00:54:21;101612.09;;;7.15;62.79
43621;BME280;29213;50.770;7.298;2022-10-04T00:56:51;101579.88;;;6.97;62.44
43621;BME280;29213;50.770;7.298;2022-10-04T01:01:55;101603.91;;;7.18;63.02
43621;BME280;29213;50.770;7.298;2022-10-04T01:06:57;101599.81;;;7.14;62.99
43621;BME280;29213;50.770;7.298;2022-10-04T01:09:24;101622.38;;;7.31;62.89
43621;BME280;29213;50.770;7.298;2022-10-04T01:11:59;101633.84;;;7.43;63.26
43621;BME280;29213;50.770;7.298;2022-10-04T01:17:01;101573.91;;;7.06;63.03
43621;BME280;29213;50.770;7.298;2022-10-04T01:19:29;101568.47;;;6.96;63.09
43621;BME280;29213;50.770;7.298;2022-10-04T01:24:38;101608.84;;;7.23;63.06
43621;BME280;29213;50.770;7.298;2022-10-04T01:27:31;101623.69;;;7.26;62.84
43621;BME280;29213;50.770;7.298;2022-10-04T01:29:57;101598.44;;;7.08;63.11
43621;BME280;29213;50.770;7.298;2022-10-04T01:32:24;101642.84;;;7.29;63.54
43621;BME280;29213;50.770;7.298;2022-10-04T01:34:50;101570.00;;;6.88;63.85
43621;BME280;29213;50.770;7.298;2022-10-04T01:37:16;101610.03;;;7.19;63.93
43621;BME280;29213;50.770;7.298;2022-10-04T01:39:41;101639.13;;;7.43;64.09
43621;BME280;29213;50.770;7.298;2022-10-04T01:42:15;101599.22;;;7.22;63.73
43621;BME280;29213;50.770;7.298;2022-10-04T01:47:21;101587.41;;;7.15;63.85
43621;BME280;29213;50.770;7.298;2022-10-04T01:49:49;101636.16;;;7.48;63.49
43621;BME280;29213;50.770;7.298;2022-10-04T01:52:23;101511.78;;;6.63;63.67
43621;BME280;29213;50.770;7.298;2022-10-04T01:54:59;101633.13;;;7.41;63.78
43621;BME280;29213;50.770;7.298;2022-10-04T01:57:32;101590.56;;;7.20;64.05
43621;BME280;29213;50.770;7.298;2022-10-04T02:00:10;101623.34;;;7.42;63.73
43621;BME280;29213;50.770;7.298;2022-10-04T02:02:54;101617.94;;;7.43;63.64
43621;BME280;29213;50.770;7.298;2022-10-04T02:05:37;101581.03;;;7.17;63.71
43621;BME280;29213;50.770;7.298;2022-10-04T02:08:08;101460.41;;;6.41;63.51
43621;BME280;29213;50.770;7.298;2022-10-04T02:10:36;101541.22;;;6.94;63.17
43621;BME280;29213;50.770;7.298;2022-10-04T02:13:07;101574.16;;;7.03;63.59
43621;BME280;29213;50.770;7.298;2022-10-04T02:15:34;101624.69;;;7.36;63.54
43621;BME280;29213;50.770;7.298;2022-10-04T02:18:01;101559.66;;;6.96;63.70
43621;BME280;29213;50.770;7.298;2022-10-04T02:20:31;101571.34;;;7.05;63.89
43621;BME280;29213;50.770;7.298;2022-10-04T02:22:58;101586.56;;;7.14;63.52
43621;BME280;29213;50.770;7.298;2022-10-04T02:25:27;101625.72;;;7.22;63.96
43621;BME280;29213;50.770;7.298;2022-10-04T02:27:54;101565.16;;;6.81;64.13
43621;BME280;29213;50.770;7.298;2022-10-04T02:30:19;101590.22;;;6.89;64.24
43621;BME280;29213;50.770;7.298;2022-10-04T02:32:45;101577.34;;;6.84;64.60
43621;BME280;29213;50.770;7.298;2022-10-04T02:35:32;101574.53;;;6.86;64.60
43621;BME280;29213;50.770;7.298;2022-10-04T02:40:39;101511.16;;;6.60;64.14
43621;BME280;29213;50.770;7.298;2022-10-04T02:43:17;101577.97;;;6.99;64.01
43621;BME280;29213;50.770;7.298;2022-10-04T02:45:50;101530.97;;;6.78;63.76
43621;BME280;29213;50.770;7.298;2022-10-04T02:48:32;101604.16;;;7.27;64.18
43621;BME280;29213;50.770;7.298;2022-10-04T02:51:11;101476.94;;;6.45;63.82
43621;BME280;29213;50.770;7.298;2022-10-04T02:54:03;101588.72;;;7.09;63.74
43621;BME280;29213;50.770;7.298;2022-10-04T02:56:31;101593.31;;;7.18;63.83
43621;BME280;29213;50.770;7.298;2022-10-04T02:59:04;101543.50;;;6.88;63.84
43621;BME280;29213;50.770;7.298;2022-10-04T03:01:44;101594.19;;;7.30;63.62
43621;BME280;29213;50.770;7.298;2022-10-04T03:04:13;101523.03;;;6.90;63.42
43621;BME280;29213;50.770;7.298;2022-10-04T03:06:39;101488.56;;;6.67;63.47
43621;BME280;29213;50.770;7.298;2022-10-04T03:09:06;101517.25;;;6.85;63.33
43621;BME280;29213;50.770;7.298;2022-10-04T03:11:37;101525.59;;;6.91;63.36
43621;BME280;29213;50.770;7.298;2022-10-04T03:14:12;101555.72;;;7.02;63.55
43621;BME280;29213;50.770;7.298;2022-10-04T03:16:41;101525.44;;;6.81;63.42
43621;BME280;29213;50.770;7.298;2022-10-04T03:19:08;101593.69;;;7.25;63.23
43621;BME280;29213;50.770;7.298;2022-10-04T03:21:37;101534.50;;;6.90;63.10
43621;BME280;29213;50.770;7.298;2022-10-04T03:24:05;101513.13;;;6.80;63.39
43621;BME280;29213;50.770;7.298;2022-10-04T03:26:51;101576.34;;;7.21;62.98
43621;BME280;29213;50.770;7.298;2022-10-04T03:29:17;101404.19;;;6.15;62.95
43621;BME280;29213;50.770;7.298;2022-10-04T03:31:45;101562.34;;;7.07;62.95
43621;BME280;29213;50.770;7.298;2022-10-04T03:34:24;101571.38;;;7.16;63.23
43621;BME280;29213;50.770;7.298;2022-10-04T03:36:52;101524.22;;;6.86;63.17
43621;BME280;29213;50.770;7.298;2022-10-04T03:39:27;101571.38;;;7.16;63.34
43621;BME280;29213;50.770;7.298;2022-10-04T03:41:54;101480.88;;;6.64;62.88
43621;BME280;29213;50.770;7.298;2022-10-04T03:44:22;101519.53;;;6.78;63.26
43621;BME280;29213;50.770;7.298;2022-10-04T03:46:47;101512.13;;;6.59;63.69
43621;BME280;29213;50.770;7.298;2022-10-04T03:49:17;101553.81;;;6.79;63.95
43621;BME280;29213;50.770;7.298;2022-10-04T03:51:48;101515.59;;;6.35;64.30
43621;BME280;29213;50.770;7.298;2022-10-04T03:54:21;101552.53;;;6.36;65.15
43621;BME280;29213;50.770;7.298;2022-10-04T03:56:50;101513.28;;;6.06;65.32
43621;BME280;29213;50.770;7.298;2022-10-04T03:59:19;101542.38;;;6.06;66.17
43621;BME280;29213;50.770;7.298;2022-10-04T04:01:59;101518.53;;;5.81;66.69
43621;BME280;29213;50.770;7.298;2022-10-04T04:04:39;101536.00;;;5.71;67.48
43621;BME280;29213;50.770;7.298;2022-10-04T04:07:12;101445.09;;;5.10;67.54
43621;BME280;29213;50.770;7.298;2022-10-04T04:09:44;101548.03;;;5.88;67.39
43621;BME280;29213;50.770;7.298;2022-10-04T04:12:38;101548.44;;;5.95;67.04
43621;BME280;29213;50.770;7.298;2022-10-04T04:15:11;101559.41;;;6.01;66.88
43621;BME280;29213;50.770;7.298;2022-10-04T04:17:46;101562.38;;;6.10;66.67
43621;BME280;29213;50.770;7.298;2022-10-04T04:20:17;101549.66;;;6.15;66.20
43621;BME280;29213;50.770;7.298;2022-10-04T04:23:11;101496.66;;;5.79;66.24
43621;BME280;29213;50.770;7.298;2022-10-04T04:25:46;101447.88;;;5.46;66.13
43621;BME280;29213;50.770;7.298;2022-10-04T04:28:22;101556.56;;;6.05;66.46
43621;BME280;29213;50.770;7.298;2022-10-04T04:30:53;101503.88;;;5.77;66.54
43621;BME280;29213;50.770;7.298;2022-10-04T04:33:31;101484.97;;;5.57;66.91
43621;BME280;29213;50.770;7.298;2022-10-04T04:36:04;101478.34;;;5.39;67.22
43621;BME280;29213;50.770;7.298;2022-10-04T04:38:30;101484.88;;;5.59;66.82
43621;BME280;29213;50.770;7.298;2022-10-04T04:41:06;101550.03;;;5.97;66.59
43621;BME280;29213;50.770;7.298;2022-10-04T04:43:34;101430.66;;;5.40;66.64
43621;BME280;29213;50.770;7.298;2022-10-04T04:46:00;101530.22;;;6.03;66.53
43621;BME280;29213;50.770;7.298;2022-10-04T04:48:26;101489.69;;;5.78;66.14
43621;BME280;29213;50.770;7.298;2022-10-04T04:50:54;101500.69;;;5.72;66.17
43621;BME280;29213;50.770;7.298;2022-10-04T04:53:26;101542.09;;;5.97;66.59
43621;BME280;29213;50.770;7.298;2022-10-04T04:55:58;101502.16;;;5.76;66.14
43621;BME280;29213;50.770;7.298;2022-10-04T04:58:31;101486.28;;;5.76;66.22
43621;BME280;29213;50.770;7.298;2022-10-04T05:01:02;101520.56;;;6.15;65.83
43621;BME280;29213;50.770;7.298;2022-10-04T05:03:28;101524.44;;;6.22;65.80
43621;BME280;29213;50.770;7.298;2022-10-04T05:05:59;101531.97;;;6.40;65.74
43621;BME280;29213;50.770;7.298;2022-10-04T05:08:32;101497.97;;;6.22;65.37
43621;BME280;29213;50.770;7.298;2022-10-04T05:13:43;101557.50;;;6.65;64.92
43621;BME280;29213;50.770;7.298;2022-10-04T05:16:18;101500.56;;;6.35;64.80
43621;BME280;29213;50.770;7.298;2022-10-04T05:18:45;101371.94;;;5.61;64.48
43621;BME280;29213;50.770;7.298;2022-10-04T05:21:16;101496.84;;;6.38;64.54
43621;BME280;29213;50.770;7.298;2022-10-04T05:23:44;101524.22;;;6.50;64.13
43621;BME280;29213;50.770;7.298;2022-10-04T05:26:11;101549.25;;;6.70;64.37
43621;BME280;29213;50.770;7.298;2022-10-04T05:28:39;101540.31;;;6.71;64.45
43621;BME280;29213;50.770;7.298;2022-10-04T05:31:21;101478.03;;;6.29;64.61
43621;BME280;29213;50.770;7.298;2022-10-04T05:33:54;101539.88;;;6.77;64.53
43621;BME280;29213;50.770;7.298;2022-10-04T05:36:53;101438.78;;;6.12;64.06
43621;BME280;29213;50.770;7.298;2022-10-04T05:39:35;101531.03;;;6.65;64.48
43621;BME280;29213;50.770;7.298;2022-10-04T05:42:15;101443.69;;;6.41;70.33
43621;BME280;29213;50.770;7.298;2022-10-04T05:44:55;101499.19;;;6.78;66.00
43621;BME280;29213;50.770;7.298;2022-10-04T05:47:24;101466.69;;;6.65;64.99
43621;BME280;29213;50.770;7.298;2022-10-04T05:49:52;101509.81;;;6.90;64.88
43621;BME280;29213;50.770;7.298;2022-10-04T05:52:36;101523.91;;;6.90;64.39
43621;BME280;29213;50.770;7.298;2022-10-04T05:57:57;101431.88;;;6.34;64.53
43621;BME280;29213;50.770;7.298;2022-10-04T06:01:01;101524.72;;;6.91;64.32
43621;BME280;29213;50.770;7.298;2022-10-04T06:03:53;101457.94;;;6.51;64.03
43621;BME280;29213;50.770;7.298;2022-10-04T06:06:42;101511.13;;;6.84;64.22
43621;BME280;29213;50.770;7.298;2022-10-04T06:12:39;101517.28;;;6.96;68.85
43621;BME280;29213;50.770;7.298;2022-10-04T06:20:46;101513.75;;;7.54;65.75
43621;BME280;29213;50.770;7.298;2022-10-04T06:23:17;101504.22;;;7.40;64.55
43621;BME280;29213;50.770;7.298;2022-10-04T06:26:07;101502.06;;;7.34;64.68
43621;BME280;29213;50.770;7.298;2022-10-04T06:28:40;101506.00;;;7.40;64.54
43621;BME280;29213;50.770;7.298;2022-10-04T06:33:59;101501.41;;;7.19;64.38
43621;BME280;29213;50.770;7.298;2022-10-04T06:44:57;101505.53;;;7.34;64.08
43621;BME280;29213;50.770;7.298;2022-10-04T06:58:16;101504.25;;;6.81;65.12
43621;BME280;29213;50.770;7.298;2022-10-04T07:01:03;101422.84;;;6.25;65.50
43621;BME280;29213;50.770;7.298;2022-10-04T07:03:56;101476.59;;;6.50;65.66
43621;BME280;29213;50.770;7.298;2022-10-04T07:07:01;101502.53;;;6.69;66.27
43621;BME280;29213;50.770;7.298;2022-10-04T07:09:51;101454.94;;;6.45;66.02
43621;BME280;29213;50.770;7.298;2022-10-04T07:12:19;101416.31;;;6.18;66.46
43621;BME280;29213;50.770;7.298;2022-10-04T07:14:52;101470.72;;;6.58;66.18
43621;BME280;29213;50.770;7.298;2022-10-04T07:17:28;101435.88;;;6.39;66.11
43621;BME280;29213;50.770;7.298;2022-10-04T07:19:56;101472.81;;;6.77;65.74
43621;BME280;29213;50.770;7.298;2022-10-04T07:22:41;101522.25;;;7.01;65.97
43621;BME280;29213;50.770;7.298;2022-10-04T07:25:15;101519.94;;;6.96;66.31
43621;BME280;29213;50.770;7.298;2022-10-04T07:28:16;101517.97;;;6.75;66.81
43621;BME280;29213;50.770;7.298;2022-10-04T07:31:20;101497.00;;;6.72;66.96
43621;BME280;29213;50.770;7.298;2022-10-04T07:34:09;101508.81;;;6.79;67.41
43621;BME280;29213;50.770;7.298;2022-10-04T07:36:49;101470.50;;;6.61;67.50
43621;BME280;29213;50.770;7.298;2022-10-04T07:41:58;101512.16;;;7.06;67.64
43621;BME280;29213;50.770;7.298;2022-10-04T07:44:37;101505.31;;;7.26;67.31
43621;BME280;29213;50.770;7.298;2022-10-04T07:47:18;101451.06;;;7.07;67.25
43621;BME280;29213;50.770;7.298;2022-10-04T07:49:45;101506.28;;;7.59;67.36
43621;BME280;29213;50.770;7.298;2022-10-04T07:55:16;101505.00;;;7.86;67.23
43621;BME280;29213;50.770;7.298;2022-10-04T08:00:21;101459.50;;;7.58;65.97
43621;BME280;29213;50.770;7.298;2022-10-04T08:05:40;101469.63;;;7.76;66.47
43621;BME280;29213;50.770;7.298;2022-10-04T08:08:28;101489.34;;;8.06;66.32
43621;BME280;29213;50.770;7.298;2022-10-04T08:13:40;101484.56;;;8.21;65.53
43621;BME280;29213;50.770;7.298;2022-10-04T08:21:34;101462.72;;;8.29;65.57
43621;BME280;29213;50.770;7.298;2022-10-04T08:24:39;101378.69;;;7.85;65.29
43621;BME280;29213;50.770;7.298;2022-10-04T08:27:29;101454.28;;;8.24;65.42
43621;BME280;29213;50.770;7.298;2022-10-04T08:30:11;101459.66;;;8.34;65.56
43621;BME280;29213;50.770;7.298;2022-10-04T08:35:36;101512.03;;;8.64;65.42
43621;BME280;29213;50.770;7.298;2022-10-04T08:38:18;101515.88;;;8.72;65.76
43621;BME280;29213;50.770;7.298;2022-10-04T08:41:16;101445.63;;;8.22;65.72
43621;BME280;29213;50.770;7.298;2022-10-04T08:47:05;101514.50;;;8.77;65.55
43621;BME280;29213;50.770;7.298;2022-10-04T08:49:55;101493.84;;;8.60;65.72
43621;BME280;29213;50.770;7.298;2022-10-04T08:53:04;101520.91;;;8.75;65.79
43621;BME280;29213;50.770;7.298;2022-10-04T08:56:11;101511.19;;;8.85;65.72
43621;BME280;29213;50.770;7.298;2022-10-04T08:59:27;101511.72;;;9.00;65.65
43621;BME280;29213;50.770;7.298;2022-10-04T09:02:00;101505.75;;;9.08;65.34
43621;BME280;29213;50.770;7.298;2022-10-04T09:13:35;101517.56;;;9.78;63.74
43621;BME280;29213;50.770;7.298;2022-10-04T09:24:59;101432.63;;;9.55;63.44
43621;BME280;29213;50.770;7.298;2022-10-04T09:30:19;101455.88;;;9.53;63.67
43621;BME280;29213;50.770;7.298;2022-10-04T09:36:03;101495.75;;;10.03;64.54
43621;BME280;29213;50.770;7.298;2022-10-04T09:39:06;101398.50;;;9.60;64.20
43621;BME280;29213;50.770;7.298;2022-10-04T09:41:59;101483.16;;;10.25;63.97
43621;BME280;29213;50.770;7.298;2022-10-04T09:44:54;101493.81;;;10.35;63.69
43621;BME280;29213;50.770;7.298;2022-10-04T09:47:43;101477.81;;;10.35;63.73
43621;BME280;29213;50.770;7.298;2022-10-04T09:56:10;101486.38;;;10.78;63.14
43621;BME280;29213;50.770;7.298;2022-10-04T09:58:47;101482.03;;;10.87;62.80
43621;BME280;29213;50.770;7.298;2022-10-04T10:07:09;101473.59;;;10.62;62.30
43621;BME280;29213;50.770;7.298;2022-10-04T10:20:58;101464.66;;;11.21;62.66
43621;BME280;29213;50.770;7.298;2022-10-04T10:26:32;101449.59;;;11.58;61.54
43621;BME280;29213;50.770;7.298;2022-10-04T10:34:26;101419.03;;;11.52;60.46
43621;BME280;29213;50.770;7.298;2022-10-04T10:49:19;101455.50;;;11.80;58.04
43621;BME280;29213;50.770;7.298;2022-10-04T11:00:18;101405.09;;;11.76;56.10
43621;BME280;29213;50.770;7.298;2022-10-04T11:05:41;101443.19;;;11.97;57.09
43621;BME280;29213;50.770;7.298;2022-10-04T11:08:28;101437.00;;;12.14;58.50
43621;BME280;29213;50.770;7.298;2022-10-04T11:11:21;101404.75;;;12.08;57.40
43621;BME280;29213;50.770;7.298;2022-10-04T11:17:09;101420.28;;;12.57;57.56
43621;BME280;29213;50.770;7.298;2022-10-04T11:28:30;101418.69;;;12.38;55.91
43621;BME280;29213;50.770;7.298;2022-10-04T11:36:55;101407.47;;;12.87;57.73
43621;BME280;29213;50.770;7.298;2022-10-04T11:39:56;101356.53;;;12.62;55.31
43621;BME280;29213;50.770;7.298;2022-10-04T11:43:08;101400.44;;;12.86;55.77
43621;BME280;29213;50.770;7.298;2022-10-04T11:45:52;101335.25;;;12.44;55.32
43621;BME280;29213;50.770;7.298;2022-10-04T11:48:31;101353.75;;;12.46;54.59
43621;BME280;29213;50.770;7.298;2022-10-04T11:54:23;101385.38;;;12.85;56.69
43621;BME280;29213;50.770;7.298;2022-10-04T12:02:59;101367.91;;;12.64;54.32
43621;BME280;29213;50.770;7.298;2022-10-04T12:08:44;101360.84;;;12.90;55.09
43621;BME280;29213;50.770;7.298;2022-10-04T12:17:36;101368.19;;;13.22;55.40
43621;BME280;29213;50.770;7.298;2022-10-04T12:31:22;101224.75;;;13.05;53.61
43621;BME280;29213;50.770;7.298;2022-10-04T12:36:53;101334.50;;;13.96;53.27
43621;BME280;29213;50.770;7.298;2022-10-04T12:42:18;101260.22;;;13.57;51.86
43621;BME280;29213;50.770;7.298;2022-10-04T12:47:34;101337.94;;;14.55;53.50
43621;BME280;29213;50.770;7.298;2022-10-04T12:50:24;101335.19;;;14.72;52.55
43621;BME280;29213;50.770;7.298;2022-10-04T12:53:05;101294.34;;;14.61;51.80
43621;BME280;29213;50.770;7.298;2022-10-04T12:55:58;101326.81;;;15.15;52.00
43621;BME280;29213;50.770;7.298;2022-10-04T13:04:01;101310.63;;;15.08;50.11
43621;BME280;29213;50.770;7.298;2022-10-04T13:07:09;101193.91;;;14.49;51.29
43621;BME280;29213;50.770;7.298;2022-10-04T13:20:45;101296.91;;;15.49;51.99
43621;BME280;29213;50.770;7.298;2022-10-04T13:23:34;101288.81;;;15.34;50.84
43621;BME280;29213;50.770;7.298;2022-10-04T13:29:14;101293.47;;;15.41;52.32
43621;BME280;29213;50.770;7.298;2022-10-04T13:31:52;101278.28;;;15.48;53.31
43621;BME280;29213;50.770;7.298;2022-10-04T13:34:27;101273.59;;;15.50;52.46
43621;BME280;29213;50.770;7.298;2022-10-04T13:39:43;101280.94;;;15.33;52.03
43621;BME280;29213;50.770;7.298;2022-10-04T13:52:48;101280.94;;;15.33;53.08
43621;BME280;29213;50.770;7.298;2022-10-04T13:55:43;101278.38;;;15.40;53.23
43621;BME280;29213;50.770;7.298;2022-10-04T13:58:46;101220.22;;;15.08;53.21
43621;BME280;29213;50.770;7.298;2022-10-04T14:15:03;101252.72;;;15.37;53.60
43621;BME280;29213;50.770;7.298;2022-10-04T14:37:10;101199.53;;;15.17;53.75
43621;BME280;29213;50.770;7.298;2022-10-04T14:43:09;101195.50;;;15.21;52.90
43621;BME280;29213;50.770;7.298;2022-10-04T14:55:08;101222.69;;;15.57;53.34
43621;BME280;29213;50.770;7.298;2022-10-04T15:03:18;101220.72;;;15.50;53.52
43621;BME280;29213;50.770;7.298;2022-10-04T15:10:58;101128.41;;;14.98;52.99
43621;BME280;29213;50.770;7.298;2022-10-04T15:13:38;101160.88;;;15.12;52.45
43621;BME280;29213;50.770;7.298;2022-10-04T15:19:21;101191.00;;;15.37;53.34
43621;BME280;29213;50.770;7.298;2022-10-04T15:29:40;101166.25;;;15.27;53.53
43621;BME280;29213;50.770;7.298;2022-10-04T15:32:29;101145.53;;;15.20;54.25
43621;BME280;29213;50.770;7.298;2022-10-04T15:35:13;101172.56;;;15.34;54.03
43621;BME280;29213;50.770;7.298;2022-10-04T15:37:48;101145.34;;;15.22;54.32
43621;BME280;29213;50.770;7.298;2022-10-04T15:43:21;101176.00;;;15.43;54.14
43621;BME280;29213;50.770;7.298;2022-10-04T15:56:59;101130.34;;;15.13;54.19
43621;BME280;29213;50.770;7.298;2022-10-04T16:09:55;101105.72;;;14.86;54.50
43621;BME280;29213;50.770;7.298;2022-10-04T16:12:27;101183.31;;;15.34;54.04
43621;BME280;29213;50.770;7.298;2022-10-04T16:15:10;101185.34;;;15.32;54.06
43621;BME280;29213;50.770;7.298;2022-10-04T16:17:59;101182.03;;;15.30;54.34
43621;BME280;29213;50.770;7.298;2022-10-04T16:23:39;101194.97;;;15.26;54.47
43621;BME280;29213;50.770;7.298;2022-10-04T16:26:10;101170.56;;;15.13;54.66
43621;BME280;29213;50.770;7.298;2022-10-04T16:39:47;101205.41;;;15.21;54.92
43621;BME280;29213;50.770;7.298;2022-10-04T16:42:55;101214.75;;;15.25;55.57
43621;BME280;29213;50.770;7.298;2022-10-04T16:51:12;101198.13;;;14.98;56.66
43621;BME280;29213;50.770;7.298;2022-10-04T17:04:48;101186.25;;;14.46;57.30
43621;BME280;29213;50.770;7.298;2022-10-04T17:07:47;101228.34;;;14.68;57.52
43621;BME280;29213;50.770;7.298;2022-10-04T17:13:46;101229.22;;;14.52;57.41
43621;BME280;29213;50.770;7.298;2022-10-04T17:16:37;101132.38;;;13.84;57.70
43621;BME280;29213;50.770;7.298;2022-10-04T17:19:57;101223.94;;;14.36;57.88
43621;BME280;29213;50.770;7.298;2022-10-04T17:22:21;101160.31;;;13.81;57.74
43621;BME280;29213;50.770;7.298;2022-10-04T17:27:50;101231.53;;;14.15;57.89
43621;BME280;29213;50.770;7.298;2022-10-04T17:30:23;101242.94;;;14.09;58.10
43621;BME280;29213;50.770;7.298;2022-10-04T17:33:11;101203.19;;;13.73;58.25
43621;BME280;29213;50.770;7.298;2022-10-04T17:41:23;101246.63;;;13.83;58.45
43621;BME280;29213;50.770;7.298;2022-10-04T17:49:04;101237.97;;;13.73;61.53
43621;BME280;29213;50.770;7.298;2022-10-04T17:51:54;101203.88;;;13.50;61.26
43621;BME280;29213;50.770;7.298;2022-10-04T17:54:44;101244.66;;;13.77;61.23
43621;BME280;29213;50.770;7.298;2022-10-04T17:57:40;101178.97;;;13.33;60.71
43621;BME280;29213;50.770;7.298;2022-10-04T18:00:09;101245.16;;;13.72;60.42
43621;BME280;29213;50.770;7.298;2022-10-04T18:05:32;101262.38;;;13.70;59.33
43621;BME280;29213;50.770;7.298;2022-10-04T18:22:11;101271.06;;;13.30;58.58
43621;BME280;29213;50.770;7.298;2022-10-04T18:24:39;101231.22;;;12.94;58.64
43621;BME280;29213;50.770;7.298;2022-10-04T18:27:16;101276.25;;;13.15;58.91
43621;BME280;29213;50.770;7.298;2022-10-04T18:29:55;101278.06;;;13.06;58.96
43621;BME280;29213;50.770;7.298;2022-10-04T18:34:54;101283.69;;;12.95;59.30
43621;BME280;29213;50.770;7.298;2022-10-04T18:37:33;101235.78;;;12.59;59.31
43621;BME280;29213;50.770;7.298;2022-10-04T18:40:13;101171.66;;;12.15;59.26
43621;BME280;29213;50.770;7.298;2022-10-04T18:42:41;101244.63;;;12.59;59.41
43621;BME280;29213;50.770;7.298;2022-10-04T18:47:48;101275.91;;;12.67;59.70
43621;BME280;29213;50.770;7.298;2022-10-04T18:58:13;101258.75;;;12.43;60.00
43621;BME280;29213;50.770;7.298;2022-10-04T19:01:25;101266.25;;;12.39;60.15
43621;BME280;29213;50.770;7.298;2022-10-04T19:04:16;101223.34;;;12.06;60.22
43621;BME280;29213;50.770;7.298;2022-10-04T19:06:46;101261.00;;;12.21;60.10
43621;BME280;29213;50.770;7.298;2022-10-04T19:09:25;101301.44;;;12.35;60.19
43621;BME280;29213;50.770;7.298;2022-10-04T19:12:11;101205.38;;;11.63;60.13
43621;BME280;29213;50.770;7.298;2022-10-04T19:15:08;101314.22;;;12.23;60.24
43621;BME280;29213;50.770;7.298;2022-10-04T19:17:58;101299.41;;;12.02;60.25
43621;BME280;29213;50.770;7.298;2022-10-04T19:23:27;101271.44;;;11.70;60.39
43621;BME280;29213;50.770;7.298;2022-10-04T19:25:58;101262.47;;;11.53;60.26
43621;BME280;29213;50.770;7.298;2022-10-04T19:28:29;101331.50;;;11.92;60.29
43621;BME280;29213;50.770;7.298;2022-10-04T19:36:10;101315.34;;;11.75;60.43
43621;BME280;29213;50.770;7.298;2022-10-04T19:39:03;101319.16;;;11.73;60.66
43621;BME280;29213;50.770;7.298;2022-10-04T19:41:43;101321.28;;;11.69;60.61
43621;BME280;29213;50.770;7.298;2022-10-04T19:44:25;101329.09;;;11.62;60.91
43621;BME280;29213;50.770;7.298;2022-10-04T19:50:05;101315.91;;;11.61;61.14
43621;BME280;29213;50.770;7.298;2022-10-04T19:52:48;101315.06;;;11.60;61.20
43621;BME280;29213;50.770;7.298;2022-10-04T20:00:26;101227.25;;;11.49;62.35
43621;BME280;29213;50.770;7.298;2022-10-04T20:02:51;101191.41;;;11.25;61.63
43621;BME280;29213;50.770;7.298;2022-10-04T20:05:19;101302.88;;;11.94;61.60
43621;BME280;29213;50.770;7.298;2022-10-04T20:07:55;101293.59;;;11.88;61.16
43621;BME280;29213;50.770;7.298;2022-10-04T20:10:34;101218.97;;;11.34;61.13
43621;BME280;29213;50.770;7.298;2022-10-04T20:18:01;101219.69;;;11.18;60.92
43621;BME280;29213;50.770;7.298;2022-10-04T20:23:08;101280.00;;;11.55;60.85
43621;BME280;29213;50.770;7.298;2022-10-04T20:31:00;101249.53;;;11.21;61.06
43621;BME280;29213;50.770;7.298;2022-10-04T20:36:47;101254.91;;;11.12;60.97
43621;BME280;29213;50.770;7.298;2022-10-04T20:38:58;101267.50;;;11.19;61.17
43621;BME280;29213;50.770;7.298;2022-10-04T20:43:57;101246.31;;;11.00;61.24
43621;BME280;29213;50.770;7.298;2022-10-04T20:46:27;101208.16;;;10.71;61.16
43621;BME280;29213;50.770;7.298;2022-10-04T20:48:55;101284.63;;;11.17;61.35
43621;BME280;29213;50.770;7.298;2022-10-04T20:51:22;101165.47;;;10.35;61.20
43621;BME280;29213;50.770;7.298;2022-10-04T20:53:48;101208.50;;;10.58;61.07
43621;BME280;29213;50.770;7.298;2022-10-04T20:58:55;101149.72;;;10.13;61.15
43621;BME280;29213;50.770;7.298;2022-10-04T21:06:53;101271.16;;;10.62;60.87
43621;BME280;29213;50.770;7.298;2022-10-04T21:09:19;101265.28;;;10.59;60.77
43621;BME280;29213;50.770;7.298;2022-10-04T21:11:48;101297.50;;;10.75;60.96
43621;BME280;29213;50.770;7.298;2022-10-04T21:14:25;101258.63;;;10.45;60.77
43621;BME280;29213;50.770;7.298;2022-10-04T21:16:52;101203.72;;;10.06;60.83
43621;BME280;29213;50.770;7.298;2022-10-04T21:29:53;101313.00;;;10.42;60.77
43621;BME280;29213;50.770;7.298;2022-10-04T21:32:23;101303.78;;;10.36;60.75
43621;BME280;29213;50.770;7.298;2022-10-04T21:34:49;101299.75;;;10.32;60.88
43621;BME280;29213;50.770;7.298;2022-10-04T21:37:15;101306.31;;;10.28;61.05
43621;BME280;29213;50.770;7.298;2022-10-04T21:39:41;101244.66;;;9.85;61.00
43621;BME280;29213;50.770;7.298;2022-10-04T21:42:07;101291.09;;;10.10;61.31
43621;BME280;29213;50.770;7.298;2022-10-04T21:44:32;101262.16;;;9.87;60.98
43621;BME280;29213;50.770;7.298;2022-10-04T21:46:58;101266.94;;;9.84;60.90
43621;BME280;29213;50.770;7.298;2022-10-04T21:49:23;101304.84;;;10.06;60.87
43621;BME280;29213;50.770;7.298;2022-10-04T21:51:49;101236.00;;;9.63;60.96